Time;durP1;ratioP1;P1;durP2;ratioP2;P2;SDS_P1;SDS_P2;PMS_P1;PMS_P2;Temp;Humidity;BMP_temperature;BMP_pressure;BME280_temperature;BME280_humidity;BME280_pressure;Samples;Min_cycle;Max_cycle;Signal;HPM_P1;HPM_P2
2021/10/01 00:01:54;;;;;;;;;3.00;2.00;;;;;;;;5058597;28;9007;-76
2021/10/01 00:04:21;;;;;;;;;3.00;1.00;;;;;;;;5059662;28;9160;-75
2021/10/01 00:06:49;;;;;;;;;2.00;2.00;;;;;;;;5056850;28;9107;-75
2021/10/01 00:09:17;;;;;;;;;1.67;1.67;;;;;;;;5064280;28;9275;-77
2021/10/01 00:11:51;;;;;;;;;2.00;2.00;;;;;;;;5057553;28;9251;-78
2021/10/01 00:14:19;;;;;;;;;2.00;2.00;;;;;;;;5060901;28;9239;-77
2021/10/01 00:16:47;;;;;;;;;2.00;2.00;;;;;;;;5064836;28;9120;-77
2021/10/01 00:19:14;;;;;;;;;2.00;2.00;;;;;;;;5059105;28;9355;-76
2021/10/01 00:21:42;;;;;;;;;2.00;2.00;;;;;;;;5054905;28;9998;-77
2021/10/01 00:24:09;;;;;;;;;6.00;3.00;;;;;;;;5064835;28;9320;-80
2021/10/01 00:26:37;;;;;;;;;2.00;2.00;;;;;;;;5062373;28;9318;-78
2021/10/01 00:29:06;;;;;;;;;1.33;1.33;;;;;;;;5057802;28;10334;-77
2021/10/01 00:31:34;;;;;;;;;7.00;2.67;;;;;;;;5061971;28;9457;-79
2021/10/01 00:34:02;;;;;;;;;2.33;2.33;;;;;;;;5055925;28;9509;-77
2021/10/01 00:36:29;;;;;;;;;2.00;2.00;;;;;;;;5057482;28;9556;-77
2021/10/01 00:38:58;;;;;;;;;1.00;1.00;;;;;;;;5060746;28;9480;-78
2021/10/01 00:41:26;;;;;;;;;1.50;1.50;;;;;;;;5062503;28;9489;-77
2021/10/01 00:43:54;;;;;;;;;0.50;0.50;;;;;;;;5056306;28;9467;-79
2021/10/01 00:46:23;;;;;;;;;1.75;1.75;;;;;;;;5060564;28;9416;-77
2021/10/01 00:48:50;;;;;;;;;3.00;1.00;;;;;;;;5058937;28;10224;-78
2021/10/01 00:51:20;;;;;;;;;4.00;2.50;;;;;;;;5061143;28;9540;-79
2021/10/01 00:53:47;;;;;;;;;2.75;2.75;;;;;;;;5064285;28;9529;-76
2021/10/01 00:56:15;;;;;;;;;1.00;1.00;;;;;;;;5062381;28;9649;-78
2021/10/01 00:58:42;;;;;;;;;1.75;1.25;;;;;;;;5065479;28;9576;-77
2021/10/01 01:01:12;;;;;;;;;2.00;2.00;;;;;;;;5060614;28;9597;-76
2021/10/01 01:03:44;;;;;;;;;2.00;2.00;;;;;;;;5059635;28;9656;-76
2021/10/01 01:06:18;;;;;;;;;0.00;0.00;;;;;;;;5061423;28;9572;-79
2021/10/01 01:08:55;;;;;;;;;1.00;1.00;;;;;;;;5053075;28;9716;-76
2021/10/01 01:11:31;;;;;;;;;0.75;0.75;;;;;;;;5064050;28;9826;-76
2021/10/01 01:14:04;;;;;;;;;1.00;1.00;;;;;;;;5063778;28;9614;-77
2021/10/01 01:16:34;;;;;;;;;3.75;2.00;;;;;;;;5057780;28;10067;-78
2021/10/01 01:19:11;;;;;;;;;1.50;1.50;;;;;;;;5063334;28;10725;-76
2021/10/01 01:21:51;;;;;;;;;2.00;2.00;;;;;;;;5063062;28;10247;-77
2021/10/01 01:24:43;;;;;;;;;1.25;1.25;;;;;;;;5063865;28;10129;-80
2021/10/01 01:27:19;;;;;;;;;2.75;1.25;;;;;;;;5058141;28;10086;-77
2021/10/01 01:29:55;;;;;;;;;0.00;0.00;;;;;;;;5062199;28;10107;-78
2021/10/01 01:32:25;;;;;;;;;3.00;1.50;;;;;;;;5062487;28;9806;-78
2021/10/01 01:34:56;;;;;;;;;1.50;0.25;;;;;;;;5066379;28;9852;-75
2021/10/01 01:37:26;;;;;;;;;1.00;1.00;;;;;;;;5062602;28;9718;-77
2021/10/01 01:39:55;;;;;;;;;3.00;1.50;;;;;;;;5060819;28;9722;-76
2021/10/01 01:42:23;;;;;;;;;2.25;0.75;;;;;;;;5064912;28;9640;-75
2021/10/01 01:44:51;;;;;;;;;1.00;1.00;;;;;;;;5061753;28;9573;-76
2021/10/01 01:47:19;;;;;;;;;2.50;1.00;;;;;;;;5068670;28;9578;-74
2021/10/01 01:49:48;;;;;;;;;1.00;1.00;;;;;;;;5055449;28;9548;-74
2021/10/01 01:52:17;;;;;;;;;1.00;1.00;;;;;;;;5062668;28;9558;-75
2021/10/01 01:54:45;;;;;;;;;1.00;0.25;;;;;;;;5062797;28;10233;-75
2021/10/01 01:57:13;;;;;;;;;1.00;1.00;;;;;;;;5060883;28;9591;-76
2021/10/01 01:59:41;;;;;;;;;1.25;1.25;;;;;;;;5063209;28;9525;-77
2021/10/01 02:02:09;;;;;;;;;1.00;1.00;;;;;;;;5042606;28;9570;-77
2021/10/01 02:04:37;;;;;;;;;1.00;1.00;;;;;;;;5036852;28;9520;-77
2021/10/01 02:07:07;;;;;;;;;1.00;1.00;;;;;;;;5042283;28;9475;-77
2021/10/01 02:09:35;;;;;;;;;1.50;1.50;;;;;;;;5026939;28;9617;-78
2021/10/01 02:12:03;;;;;;;;;1.00;1.00;;;;;;;;5041640;28;9502;-79
2021/10/01 02:14:36;;;;;;;;;2.00;2.00;;;;;;;;5039019;28;9488;-79
2021/10/01 02:17:04;;;;;;;;;1.00;1.00;;;;;;;;5035375;28;9493;-78
2021/10/01 02:19:34;;;;;;;;;1.25;1.00;;;;;;;;5040364;28;9405;-78
2021/10/01 02:22:02;;;;;;;;;1.00;1.00;;;;;;;;5039845;28;9407;-79
2021/10/01 02:24:31;;;;;;;;;1.67;1.67;;;;;;;;5043400;28;9488;-78
2021/10/01 02:27:04;;;;;;;;;1.00;0.25;;;;;;;;5041751;28;9450;-77
2021/10/01 02:29:40;;;;;;;;;1.00;1.00;;;;;;;;5038202;28;9597;-78
2021/10/01 02:32:13;;;;;;;;;1.00;1.00;;;;;;;;5038174;28;9632;-78
2021/10/01 02:34:42;;;;;;;;;0.50;0.50;;;;;;;;5042447;28;9661;-77
2021/10/01 02:37:10;;;;;;;;;1.00;1.00;;;;;;;;5042200;28;9676;-77
2021/10/01 02:39:41;;;;;;;;;1.00;1.00;;;;;;;;5044196;28;9503;-77
2021/10/01 02:42:09;;;;;;;;;1.00;1.00;;;;;;;;5042033;28;9494;-76
2021/10/01 02:44:38;;;;;;;;;2.00;2.00;;;;;;;;5039848;28;10311;-77
2021/10/01 02:47:06;;;;;;;;;2.00;0.00;;;;;;;;5040620;28;9660;-77
2021/10/01 02:49:34;;;;;;;;;1.75;0.50;;;;;;;;5039867;28;9628;-76
2021/10/01 02:52:06;;;;;;;;;1.00;1.00;;;;;;;;5039182;28;9563;-77
2021/10/01 02:54:41;;;;;;;;;1.00;1.00;;;;;;;;5041837;28;10402;-79
2021/10/01 02:57:11;;;;;;;;;1.00;1.00;;;;;;;;5041177;28;9593;-76
2021/10/01 02:59:39;;;;;;;;;1.00;1.00;;;;;;;;5043841;28;9550;-78
2021/10/01 03:02:07;;;;;;;;;0.33;0.33;;;;;;;;5039938;28;9446;-76
2021/10/01 03:04:36;;;;;;;;;0.50;0.50;;;;;;;;5043331;28;9417;-77
2021/10/01 03:07:06;;;;;;;;;1.75;1.00;;;;;;;;5042107;28;9452;-76
2021/10/01 03:09:34;;;;;;;;;1.00;1.00;;;;;;;;5040492;28;9565;-77
2021/10/01 03:12:03;;;;;;;;;2.00;2.00;;;;;;;;5042754;28;9538;-77
2021/10/01 03:14:31;;;;;;;;;2.00;2.00;;;;;;;;5038921;28;9536;-76
2021/10/01 03:16:59;;;;;;;;;1.00;1.00;;;;;;;;5041262;28;9600;-77
2021/10/01 03:19:26;;;;;;;;;0.67;0.67;;;;;;;;5040763;28;9523;-79
2021/10/01 03:21:55;;;;;;;;;0.25;0.25;;;;;;;;5041738;28;9421;-78
2021/10/01 03:24:23;;;;;;;;;2.00;1.00;;;;;;;;5041676;28;9475;-77
2021/10/01 03:26:52;;;;;;;;;1.25;1.25;;;;;;;;5040829;28;9528;-76
2021/10/01 03:29:20;;;;;;;;;1.50;1.00;;;;;;;;5041776;28;9404;-77
2021/10/01 03:31:49;;;;;;;;;1.00;1.00;;;;;;;;5053625;28;9376;-77
2021/10/01 03:34:18;;;;;;;;;2.00;2.00;;;;;;;;5057821;28;9508;-79
2021/10/01 03:36:46;;;;;;;;;1.25;1.25;;;;;;;;5061147;28;9398;-78
2021/10/01 03:39:13;;;;;;;;;2.50;1.00;;;;;;;;5063002;28;10325;-77
2021/10/01 03:41:40;;;;;;;;;3.75;0.75;;;;;;;;5064155;28;9420;-77
2021/10/01 03:44:08;;;;;;;;;1.00;1.00;;;;;;;;5055620;28;10428;-76
2021/10/01 03:46:36;;;;;;;;;1.00;1.00;;;;;;;;5058137;28;9569;-76
2021/10/01 03:49:04;;;;;;;;;0.00;0.00;;;;;;;;5059667;28;9574;-78
2021/10/01 03:51:31;;;;;;;;;1.00;1.00;;;;;;;;5064344;28;9452;-77
2021/10/01 03:53:59;;;;;;;;;1.00;1.00;;;;;;;;5063461;28;9590;-79
2021/10/01 03:56:27;;;;;;;;;2.00;1.00;;;;;;;;5064049;28;9504;-76
2021/10/01 03:58:54;;;;;;;;;1.00;1.00;;;;;;;;5061684;28;9511;-79
2021/10/01 04:01:21;;;;;;;;;1.00;1.00;;;;;;;;5061180;28;9525;-75
2021/10/01 04:03:50;;;;;;;;;1.00;1.00;;;;;;;;5059469;28;9517;-76
2021/10/01 04:06:17;;;;;;;;;0.00;0.00;;;;;;;;5062576;28;9629;-77
2021/10/01 04:08:46;;;;;;;;;0.00;0.00;;;;;;;;5074358;28;9552;-78
2021/10/01 04:11:14;;;;;;;;;0.00;0.00;;;;;;;;5063705;28;9584;-80
2021/10/01 04:13:42;;;;;;;;;1.00;1.00;;;;;;;;5065921;28;9680;-76
2021/10/01 04:16:09;;;;;;;;;2.00;0.00;;;;;;;;5060687;28;10938;-76
2021/10/01 04:18:36;;;;;;;;;0.00;0.00;;;;;;;;5064900;28;9785;-76
2021/10/01 04:21:06;;;;;;;;;0.25;0.25;;;;;;;;5061346;28;9856;-75
2021/10/01 04:23:33;;;;;;;;;1.00;1.00;;;;;;;;5063202;28;9868;-77
2021/10/01 04:26:01;;;;;;;;;1.25;0.50;;;;;;;;5066276;28;9942;-76
2021/10/01 04:28:28;;;;;;;;;0.75;0.75;;;;;;;;5065090;28;9963;-79
2021/10/01 04:30:56;;;;;;;;;3.00;2.00;;;;;;;;5062348;28;9835;-79
2021/10/01 04:33:24;;;;;;;;;3.50;2.75;;;;;;;;5064489;28;10125;-77
2021/10/01 04:35:52;;;;;;;;;3.25;3.25;;;;;;;;5066496;28;10109;-78
2021/10/01 04:38:22;;;;;;;;;4.50;3.50;;;;;;;;5076499;28;10398;-77
2021/10/01 04:40:49;;;;;;;;;4.00;4.00;;;;;;;;5063154;28;10321;-77
2021/10/01 04:43:17;;;;;;;;;3.25;3.25;;;;;;;;5066831;28;10307;-77
2021/10/01 04:45:44;;;;;;;;;5.50;4.50;;;;;;;;5063740;28;11232;-78
2021/10/01 04:48:12;;;;;;;;;9.00;7.50;;;;;;;;5064255;28;10457;-80
2021/10/01 04:50:39;;;;;;;;;12.00;8.25;;;;;;;;5060641;28;10490;-76
2021/10/01 04:53:06;;;;;;;;;8.25;8.25;;;;;;;;5064929;28;10459;-76
2021/10/01 04:55:36;;;;;;;;;6.50;6.50;;;;;;;;5069433;28;10693;-79
2021/10/01 04:58:04;;;;;;;;;6.00;5.50;;;;;;;;5063587;28;10413;-77
2021/10/01 05:00:32;;;;;;;;;7.50;6.00;;;;;;;;5066415;28;10308;-75
2021/10/01 05:02:59;;;;;;;;;6.75;6.75;;;;;;;;5063859;28;10461;-76
2021/10/01 05:05:27;;;;;;;;;8.00;6.50;;;;;;;;5062102;28;10383;-79
2021/10/01 05:07:54;;;;;;;;;7.00;7.00;;;;;;;;5059191;28;10479;-76
2021/10/01 05:10:22;;;;;;;;;4.25;4.25;;;;;;;;5063627;28;10586;-77
2021/10/01 05:12:50;;;;;;;;;2.75;2.75;;;;;;;;5061725;28;11134;-78
2021/10/01 05:15:19;;;;;;;;;7.25;3.25;;;;;;;;5064370;28;10453;-77
2021/10/01 05:17:46;;;;;;;;;2.25;2.25;;;;;;;;5053987;28;10558;-77
2021/10/01 05:20:14;;;;;;;;;3.00;3.00;;;;;;;;5062592;28;10378;-76
2021/10/01 05:22:42;;;;;;;;;4.00;4.00;;;;;;;;5057469;28;11145;-79
2021/10/01 05:25:11;;;;;;;;;2.25;2.00;;;;;;;;5061181;28;10363;-82
2021/10/01 05:27:38;;;;;;;;;3.00;2.25;;;;;;;;5059822;28;10329;-78
2021/10/01 05:30:08;;;;;;;;;3.00;1.75;;;;;;;;5043933;28;10951;-78
2021/10/01 05:32:36;;;;;;;;;1.50;1.50;;;;;;;;5063276;28;10116;-77
2021/10/01 05:35:04;;;;;;;;;2.00;1.00;;;;;;;;5074958;28;10258;-84
2021/10/01 05:37:31;;;;;;;;;3.50;2.00;;;;;;;;5060409;28;10167;-82
2021/10/01 05:39:59;;;;;;;;;3.00;3.00;;;;;;;;5062541;28;10232;-80
2021/10/01 05:42:26;;;;;;;;;1.00;1.00;;;;;;;;5062933;28;10230;-76
2021/10/01 05:44:54;;;;;;;;;2.25;2.25;;;;;;;;5065147;28;10363;-80
2021/10/01 05:47:23;;;;;;;;;2.50;2.50;;;;;;;;5062966;28;11091;-77
2021/10/01 05:49:50;;;;;;;;;2.50;2.50;;;;;;;;5063197;28;10307;-76
2021/10/01 05:52:23;;;;;;;;;4.25;4.25;;;;;;;;5062260;28;10302;-78
2021/10/01 05:54:52;;;;;;;;;6.25;6.25;;;;;;;;5060758;28;10390;-79
2021/10/01 05:57:20;;;;;;;;;5.75;5.75;;;;;;;;5064219;28;10325;-79
2021/10/01 05:59:48;;;;;;;;;7.50;5.25;;;;;;;;5061747;28;11076;-80
2021/10/01 06:02:16;;;;;;;;;7.00;7.00;;;;;;;;5066536;28;11337;-74
2021/10/01 06:04:46;;;;;;;;;6.25;6.25;;;;;;;;5055924;28;10429;-74
2021/10/01 06:07:14;;;;;;;;;7.75;7.75;;;;;;;;5065564;28;10297;-74
2021/10/01 06:09:42;;;;;;;;;10.25;7.50;;;;;;;;5062732;28;10304;-72
2021/10/01 06:12:10;;;;;;;;;6.00;6.00;;;;;;;;5063254;28;10421;-75
2021/10/01 06:14:37;;;;;;;;;8.25;7.50;;;;;;;;5061815;28;10241;-76
2021/10/01 06:17:05;;;;;;;;;7.50;7.50;;;;;;;;5067812;28;10990;-75
2021/10/01 06:19:34;;;;;;;;;7.75;7.75;;;;;;;;5064962;28;10374;-77
2021/10/01 06:22:03;;;;;;;;;10.25;9.00;;;;;;;;5067258;28;10492;-75
2021/10/01 06:24:31;;;;;;;;;6.50;6.50;;;;;;;;5067823;28;11181;-77
2021/10/01 06:26:58;;;;;;;;;8.25;8.25;;;;;;;;5061260;28;10430;-80
2021/10/01 06:29:25;;;;;;;;;11.50;11.50;;;;;;;;5071533;28;10409;-76
2021/10/01 06:31:53;;;;;;;;;10.25;8.50;;;;;;;;5069448;28;10340;-76
2021/10/01 06:34:20;;;;;;;;;10.25;10.25;;;;;;;;5067225;28;10450;-75
2021/10/01 06:36:48;;;;;;;;;8.00;8.00;;;;;;;;5069135;28;10415;-76
2021/10/01 06:39:16;;;;;;;;;8.00;8.00;;;;;;;;5064352;28;10394;-76
2021/10/01 06:41:44;;;;;;;;;8.25;7.75;;;;;;;;5073198;28;10510;-74
2021/10/01 06:44:17;;;;;;;;;8.00;8.00;;;;;;;;5066630;28;10319;-75
2021/10/01 06:46:47;;;;;;;;;6.50;6.50;;;;;;;;5058580;28;10254;-74
2021/10/01 06:49:26;;;;;;;;;6.50;6.50;;;;;;;;5069347;28;10296;-73
2021/10/01 07:36:48;;;;;;;;;1.50;1.50;;;;;;;;5079152;28;9477;-75
2021/10/01 07:45:04;;;;;;;;;2.00;2.00;;;;;;;;5078117;28;9378;-75
2021/10/01 08:20:42;;;;;;;;;2.50;1.00;;;;;;;;5084388;28;8842;-77
2021/10/01 08:23:09;;;;;;;;;2.75;1.75;;;;;;;;5084828;28;8972;-74
2021/10/01 08:25:38;;;;;;;;;3.50;2.00;;;;;;;;5085426;28;8924;-74
2021/10/01 08:28:05;;;;;;;;;1.75;1.75;;;;;;;;5066341;28;8935;-75
2021/10/01 08:30:33;;;;;;;;;2.25;2.00;;;;;;;;5084049;28;8778;-74
2021/10/01 08:33:02;;;;;;;;;3.00;2.00;;;;;;;;5083902;28;8926;-74
2021/10/01 08:35:29;;;;;;;;;3.00;1.25;;;;;;;;5084714;28;9627;-74
2021/10/01 08:37:58;;;;;;;;;1.00;1.00;;;;;;;;5085049;28;8861;-76
2021/10/01 08:40:26;;;;;;;;;1.00;1.00;;;;;;;;5083118;28;8909;-74
2021/10/01 08:42:54;;;;;;;;;2.50;1.50;;;;;;;;5084952;28;8889;-75
2021/10/01 08:45:23;;;;;;;;;1.00;1.00;;;;;;;;5083229;28;8875;-74
2021/10/01 08:47:50;;;;;;;;;1.00;1.00;;;;;;;;5066754;28;8874;-73
2021/10/01 08:50:22;;;;;;;;;0.25;0.25;;;;;;;;5084945;28;8866;-74
2021/10/01 08:52:50;;;;;;;;;1.50;1.50;;;;;;;;5084342;28;8858;-74
2021/10/01 08:55:17;;;;;;;;;1.00;1.00;;;;;;;;5079518;28;8842;-76
2021/10/01 08:57:44;;;;;;;;;1.00;1.00;;;;;;;;5081783;28;8835;-74
2021/10/01 09:00:14;;;;;;;;;1.25;1.00;;;;;;;;5083383;28;8868;-73
2021/10/01 09:02:42;;;;;;;;;0.00;0.00;;;;;;;;5083800;28;8881;-75
2021/10/01 09:05:09;;;;;;;;;0.00;0.00;;;;;;;;5084958;28;9674;-74
2021/10/01 09:07:38;;;;;;;;;0.50;0.50;;;;;;;;5100299;28;8838;-74
2021/10/01 09:10:11;;;;;;;;;1.75;1.00;;;;;;;;5081024;28;9682;-74
2021/10/01 09:12:38;;;;;;;;;2.00;0.75;;;;;;;;5084666;28;8886;-74
2021/10/01 09:15:09;;;;;;;;;1.00;1.00;;;;;;;;5083220;28;8888;-74
2021/10/01 09:17:36;;;;;;;;;1.25;1.00;;;;;;;;5083320;28;8897;-75
2021/10/01 09:20:06;;;;;;;;;1.50;1.00;;;;;;;;5082877;28;8850;-74
2021/10/01 09:22:34;;;;;;;;;1.00;1.00;;;;;;;;5084718;28;8886;-74
2021/10/01 09:25:16;;;;;;;;;2.00;2.00;;;;;;;;5084785;28;8862;-76
2021/10/01 09:27:46;;;;;;;;;2.75;2.00;;;;;;;;5084333;28;8897;-74
2021/10/01 09:30:17;;;;;;;;;1.00;1.00;;;;;;;;5065353;28;8972;-74
2021/10/01 09:33:04;;;;;;;;;1.25;1.00;;;;;;;;5082919;28;8989;-75
2021/10/01 09:35:31;;;;;;;;;2.75;1.00;;;;;;;;5084499;28;8846;-75
2021/10/01 09:38:05;;;;;;;;;1.25;1.25;;;;;;;;5084364;28;8868;-73
2021/10/01 09:40:34;;;;;;;;;0.25;0.25;;;;;;;;5083072;28;8882;-73
2021/10/01 09:43:02;;;;;;;;;1.75;1.75;;;;;;;;5085015;28;8923;-74
2021/10/01 09:45:29;;;;;;;;;1.75;1.00;;;;;;;;5083249;28;8874;-73
2021/10/01 09:47:57;;;;;;;;;1.00;1.00;;;;;;;;5084822;28;9635;-72
2021/10/01 09:50:30;;;;;;;;;0.25;0.25;;;;;;;;5082420;28;9750;-74
2021/10/01 09:53:01;;;;;;;;;0.00;0.00;;;;;;;;5084450;28;8984;-73
2021/10/01 09:55:32;;;;;;;;;1.00;1.00;;;;;;;;5083839;28;8854;-73
2021/10/01 09:58:06;;;;;;;;;1.75;1.75;;;;;;;;5083717;28;8878;-75
2021/10/01 10:00:37;;;;;;;;;1.00;1.00;;;;;;;;5083049;28;8835;-74
2021/10/01 10:03:05;;;;;;;;;0.75;0.75;;;;;;;;5082665;28;8885;-73
2021/10/01 10:05:53;;;;;;;;;2.00;1.00;;;;;;;;5083854;28;8912;-74
2021/10/01 10:08:22;;;;;;;;;1.00;1.00;;;;;;;;5083913;28;8960;-74
2021/10/01 10:10:50;;;;;;;;;0.00;0.00;;;;;;;;5083094;28;8878;-75
2021/10/01 10:13:18;;;;;;;;;1.00;1.00;;;;;;;;5084291;28;8883;-76
2021/10/01 10:16:06;;;;;;;;;3.75;1.50;;;;;;;;5079219;28;8877;-73
2021/10/01 10:18:33;;;;;;;;;34.75;32.50;;;;;;;;5091497;28;8858;-75
2021/10/01 10:21:01;;;;;;;;;1.75;0.00;;;;;;;;5077893;28;9671;-73
2021/10/01 10:23:29;;;;;;;;;1.50;1.00;;;;;;;;5078595;28;8897;-74
2021/10/01 10:25:56;;;;;;;;;2.00;1.00;;;;;;;;5078725;28;8849;-73
2021/10/01 10:28:28;;;;;;;;;0.50;0.50;;;;;;;;5080275;28;8926;-73
2021/10/01 10:30:56;;;;;;;;;0.50;0.50;;;;;;;;5080969;28;9617;-76
2021/10/01 10:33:44;;;;;;;;;1.00;1.00;;;;;;;;5079200;28;8866;-75
2021/10/01 10:36:32;;;;;;;;;1.25;1.00;;;;;;;;5085433;28;9671;-76
2021/10/01 10:39:01;;;;;;;;;0.25;0.25;;;;;;;;5069146;28;8885;-75
2021/10/01 10:41:30;;;;;;;;;1.00;1.00;;;;;;;;5078576;28;8942;-74
2021/10/01 10:43:59;;;;;;;;;1.00;1.00;;;;;;;;5082252;28;8868;-74
2021/10/01 10:46:43;;;;;;;;;0.25;0.25;;;;;;;;5077660;28;8940;-76
2021/10/01 10:49:24;;;;;;;;;1.25;1.00;;;;;;;;5081851;28;9024;-74
2021/10/01 10:52:03;;;;;;;;;1.00;1.00;;;;;;;;5079407;28;8873;-75
2021/10/01 10:54:32;;;;;;;;;1.00;1.00;;;;;;;;5078418;28;8878;-74
2021/10/01 10:57:30;;;;;;;;;0.75;0.75;;;;;;;;5080576;28;8834;-73
2021/10/01 11:00:03;;;;;;;;;0.75;0.75;;;;;;;;5037429;28;8902;-74
2021/10/01 11:02:33;;;;;;;;;1.50;0.50;;;;;;;;5071105;28;8895;-73
2021/10/01 11:05:21;;;;;;;;;2.00;2.00;;;;;;;;5080274;28;8874;-72
2021/10/01 11:07:50;;;;;;;;;1.00;1.00;;;;;;;;5075624;28;8866;-72
2021/10/01 11:10:37;;;;;;;;;2.75;1.00;;;;;;;;5060529;28;9600;-72
2021/10/01 11:13:30;;;;;;;;;0.67;0.67;;;;;;;;5080158;28;9690;-72
2021/10/01 11:16:19;;;;;;;;;1.00;1.00;;;;;;;;5082227;28;8877;-74
2021/10/01 11:19:01;;;;;;;;;0.40;0.40;;;;;;;;5086198;28;8969;-76
2021/10/01 11:21:33;;;;;;;;;0.80;0.80;;;;;;;;5077546;28;8865;-76
2021/10/01 11:24:02;;;;;;;;;1.00;1.00;;;;;;;;5083995;28;8863;-73
2021/10/01 11:26:31;;;;;;;;;0.00;0.00;;;;;;;;5079364;28;8882;-73
2021/10/01 11:28:59;;;;;;;;;1.00;1.00;;;;;;;;5079903;28;8935;-75
2021/10/01 11:31:38;;;;;;;;;1.60;1.00;;;;;;;;5079505;28;8819;-77
2021/10/01 11:34:06;;;;;;;;;1.60;0.00;;;;;;;;5078822;28;8878;-73
2021/10/01 11:36:36;;;;;;;;;2.20;1.00;;;;;;;;5080970;28;8858;-73
2021/10/01 11:39:06;;;;;;;;;3.40;1.00;;;;;;;;5078007;28;8981;-74
2021/10/01 11:41:33;;;;;;;;;1.25;1.25;;;;;;;;5082911;28;8854;-74
2021/10/01 11:44:02;;;;;;;;;2.00;0.75;;;;;;;;5084704;28;9353;-73
2021/10/01 11:46:37;;;;;;;;;3.00;1.00;;;;;;;;5080369;28;8877;-74
2021/10/01 11:49:07;;;;;;;;;1.00;1.00;;;;;;;;5083157;28;8858;-74
2021/10/01 11:51:35;;;;;;;;;1.00;1.00;;;;;;;;5082185;28;8904;-74
2021/10/01 11:54:13;;;;;;;;;1.00;1.00;;;;;;;;5083223;28;8862;-74
2021/10/01 11:56:43;;;;;;;;;4.00;2.25;;;;;;;;5079347;28;8901;-74
2021/10/01 11:59:11;;;;;;;;;2.00;2.00;;;;;;;;5082333;28;8912;-74
2021/10/01 12:01:40;;;;;;;;;1.00;1.00;;;;;;;;5083078;28;8830;-73
2021/10/01 12:04:07;;;;;;;;;0.40;0.40;;;;;;;;5084070;28;8862;-71
2021/10/01 12:06:36;;;;;;;;;1.00;1.00;;;;;;;;5082861;28;8880;-74
2021/10/01 12:09:06;;;;;;;;;1.00;1.00;;;;;;;;5081422;28;8866;-72
2021/10/01 12:11:35;;;;;;;;;1.25;0.75;;;;;;;;5083471;28;9000;-74
2021/10/01 12:14:12;;;;;;;;;1.50;1.00;;;;;;;;5066217;28;8866;-74
2021/10/01 12:16:42;;;;;;;;;1.00;1.00;;;;;;;;5084263;28;8870;-74
2021/10/01 12:19:09;;;;;;;;;6.00;1.00;;;;;;;;5087456;28;8874;-75
2021/10/01 12:21:37;;;;;;;;;1.00;1.00;;;;;;;;5084262;28;9659;-74
2021/10/01 12:24:10;;;;;;;;;1.00;1.00;;;;;;;;5074168;28;8885;-74
2021/10/01 12:26:39;;;;;;;;;2.00;1.00;;;;;;;;5082878;28;8870;-74
2021/10/01 12:29:11;;;;;;;;;0.75;0.75;;;;;;;;5067752;28;8963;-74
2021/10/01 12:31:42;;;;;;;;;2.00;1.00;;;;;;;;5082771;28;8834;-74
2021/10/01 12:34:12;;;;;;;;;2.00;2.00;;;;;;;;5085629;28;8904;-73
2021/10/01 12:36:39;;;;;;;;;3.75;1.00;;;;;;;;5085777;28;8858;-74
2021/10/01 12:39:07;;;;;;;;;1.00;1.00;;;;;;;;5066570;28;8866;-73
2021/10/01 12:41:34;;;;;;;;;1.00;1.00;;;;;;;;5083964;28;8895;-74
2021/10/01 12:44:04;;;;;;;;;1.00;1.00;;;;;;;;5085109;28;8896;-73
2021/10/01 12:46:41;;;;;;;;;1.25;1.25;;;;;;;;5085318;28;8969;-74
2021/10/01 12:49:22;;;;;;;;;1.00;1.00;;;;;;;;5084908;28;9405;-74
2021/10/01 12:52:03;;;;;;;;;1.00;1.00;;;;;;;;5082113;28;8942;-74
2021/10/01 12:54:32;;;;;;;;;1.00;1.00;;;;;;;;5084166;28;9517;-74
2021/10/01 12:57:10;;;;;;;;;0.00;0.00;;;;;;;;5084529;28;8886;-74
2021/10/01 12:59:39;;;;;;;;;0.50;0.50;;;;;;;;5084768;28;9042;-74
2021/10/01 13:02:07;;;;;;;;;1.00;1.00;;;;;;;;5082743;28;8810;-74
2021/10/01 13:04:50;;;;;;;;;1.00;1.00;;;;;;;;5084831;28;9028;-74
2021/10/01 13:07:45;;;;;;;;;0.75;0.75;;;;;;;;5085650;28;8850;-74
2021/10/01 13:10:30;;;;;;;;;1.50;1.50;;;;;;;;5058343;28;8858;-75
2021/10/01 13:13:01;;;;;;;;;1.25;0.75;;;;;;;;5085301;28;8932;-74
2021/10/01 13:15:40;;;;;;;;;1.00;1.00;;;;;;;;5084925;28;8927;-74
2021/10/01 13:18:28;;;;;;;;;0.00;0.00;;;;;;;;5083888;28;8901;-74
2021/10/01 13:21:08;;;;;;;;;2.75;1.00;;;;;;;;5077554;28;8854;-75
2021/10/01 13:23:37;;;;;;;;;2.50;1.00;;;;;;;;5084707;28;9700;-75
2021/10/01 13:26:10;;;;;;;;;1.50;1.50;;;;;;;;5084399;28;8874;-74
2021/10/01 13:28:37;;;;;;;;;2.00;2.00;;;;;;;;5085063;28;8877;-74
2021/10/01 13:31:05;;;;;;;;;1.00;1.00;;;;;;;;5082259;28;8818;-74
2021/10/01 13:33:32;;;;;;;;;0.20;0.20;;;;;;;;5067107;28;8842;-73
2021/10/01 13:36:01;;;;;;;;;1.00;1.00;;;;;;;;5064501;28;8896;-74
2021/10/01 13:38:31;;;;;;;;;1.00;1.00;;;;;;;;5081340;28;8864;-74
2021/10/01 13:40:59;;;;;;;;;4.00;1.00;;;;;;;;5083017;28;8874;-74
2021/10/01 13:43:27;;;;;;;;;0.00;0.00;;;;;;;;5085145;28;9701;-75
2021/10/01 13:45:55;;;;;;;;;2.40;1.00;;;;;;;;5084482;28;8913;-74
2021/10/01 13:48:22;;;;;;;;;1.00;1.00;;;;;;;;5084525;28;8966;-75
2021/10/01 13:50:51;;;;;;;;;0.00;0.00;;;;;;;;5084259;28;8847;-75
2021/10/01 13:53:20;;;;;;;;;1.25;1.25;;;;;;;;5083696;28;8868;-74
2021/10/01 13:55:47;;;;;;;;;0.00;0.00;;;;;;;;5084111;28;8893;-75
2021/10/01 13:58:15;;;;;;;;;1.50;1.00;;;;;;;;5083693;28;8892;-74
2021/10/01 14:00:43;;;;;;;;;1.00;1.00;;;;;;;;5083292;28;8810;-74
2021/10/01 14:03:10;;;;;;;;;1.25;1.25;;;;;;;;5083675;28;8976;-73
2021/10/01 14:05:37;;;;;;;;;1.25;1.25;;;;;;;;5083828;28;8906;-74
2021/10/01 14:08:05;;;;;;;;;1.00;1.00;;;;;;;;5098767;28;8884;-73
2021/10/01 14:10:36;;;;;;;;;1.00;1.00;;;;;;;;5082216;28;8854;-73
2021/10/01 14:13:06;;;;;;;;;1.00;1.00;;;;;;;;5084594;28;9692;-73
2021/10/01 14:15:35;;;;;;;;;2.00;2.00;;;;;;;;5083227;28;8973;-73
2021/10/01 14:18:02;;;;;;;;;1.25;1.25;;;;;;;;5084101;28;8905;-75
2021/10/01 14:20:30;;;;;;;;;1.00;1.00;;;;;;;;5082866;28;8900;-73
2021/10/01 14:22:58;;;;;;;;;3.00;1.00;;;;;;;;5083856;28;8866;-73
2021/10/01 14:25:27;;;;;;;;;3.50;1.75;;;;;;;;5084494;28;8862;-75
2021/10/01 14:27:57;;;;;;;;;1.00;1.00;;;;;;;;5082745;28;8986;-75
2021/10/01 14:30:27;;;;;;;;;0.00;0.00;;;;;;;;5083169;28;8810;-75
2021/10/01 14:32:55;;;;;;;;;2.75;1.00;;;;;;;;5083006;28;8890;-73
2021/10/01 14:35:22;;;;;;;;;3.00;1.00;;;;;;;;5083894;28;9030;-73
2021/10/01 14:37:50;;;;;;;;;2.50;1.00;;;;;;;;5082568;28;8862;-74
2021/10/01 14:40:18;;;;;;;;;1.00;1.00;;;;;;;;5082323;28;8869;-75
2021/10/01 14:42:46;;;;;;;;;2.75;2.50;;;;;;;;5083823;28;8858;-75
2021/10/01 14:45:16;;;;;;;;;1.25;1.25;;;;;;;;5083046;28;8861;-74
2021/10/01 14:47:43;;;;;;;;;1.50;1.50;;;;;;;;5083718;28;8984;-75
2021/10/01 14:50:13;;;;;;;;;2.00;2.00;;;;;;;;5082024;28;8887;-74
2021/10/01 14:52:41;;;;;;;;;1.00;1.00;;;;;;;;5083291;28;8862;-74
2021/10/01 14:55:10;;;;;;;;;1.00;1.00;;;;;;;;5082572;28;8878;-74
2021/10/01 14:57:37;;;;;;;;;2.75;1.00;;;;;;;;5083612;28;8882;-73
2021/10/01 15:00:09;;;;;;;;;4.25;2.75;;;;;;;;5081997;28;8893;-74
2021/10/01 15:02:38;;;;;;;;;2.00;2.00;;;;;;;;5082417;28;8870;-73
2021/10/01 15:05:07;;;;;;;;;2.00;2.00;;;;;;;;5083146;28;9011;-74
2021/10/01 15:07:34;;;;;;;;;1.00;1.00;;;;;;;;5082019;28;9051;-74
2021/10/01 15:10:01;;;;;;;;;1.75;1.75;;;;;;;;5081625;28;8900;-75
2021/10/01 15:12:29;;;;;;;;;2.00;2.00;;;;;;;;5082691;28;9699;-75
2021/10/01 15:14:56;;;;;;;;;2.00;2.00;;;;;;;;5085012;28;8858;-73
2021/10/01 15:17:24;;;;;;;;;2.50;1.00;;;;;;;;5087058;28;9654;-73
2021/10/01 15:19:52;;;;;;;;;1.00;1.00;;;;;;;;5086011;28;8874;-74
2021/10/01 15:22:21;;;;;;;;;0.50;0.50;;;;;;;;5083413;28;8858;-74
2021/10/01 15:24:48;;;;;;;;;1.00;1.00;;;;;;;;5084627;28;8873;-74
2021/10/01 15:27:16;;;;;;;;;2.00;2.00;;;;;;;;5087726;28;8892;-73
2021/10/01 15:30:11;;;;;;;;;3.00;1.75;;;;;;;;5084722;28;9649;-73
2021/10/01 15:32:42;;;;;;;;;1.75;1.75;;;;;;;;5084904;28;8836;-73
2021/10/01 15:35:14;;;;;;;;;3.25;3.00;;;;;;;;5589327;22;9085;-73
2021/10/01 15:37:41;;;;;;;;;3.25;2.00;;;;;;;;5062878;28;8848;-72
2021/10/01 15:40:10;;;;;;;;;3.75;3.75;;;;;;;;5066269;28;8886;-74
2021/10/01 15:42:37;;;;;;;;;3.50;2.50;;;;;;;;5063860;28;9003;-73
2021/10/01 15:45:06;;;;;;;;;2.00;2.00;;;;;;;;5069404;28;8872;-74
2021/10/01 15:47:33;;;;;;;;;1.50;1.50;;;;;;;;5066990;28;8860;-71
2021/10/01 15:50:01;;;;;;;;;1.00;1.00;;;;;;;;5065651;28;8906;-73
2021/10/01 15:52:29;;;;;;;;;3.25;2.50;;;;;;;;5064111;28;8899;-73
2021/10/01 15:54:56;;;;;;;;;2.00;2.00;;;;;;;;5061724;28;8975;-77
2021/10/01 15:57:24;;;;;;;;;3.50;3.50;;;;;;;;5063790;28;8852;-76
2021/10/01 15:59:51;;;;;;;;;4.00;4.00;;;;;;;;5045776;28;9003;-76
2021/10/01 16:02:19;;;;;;;;;4.00;4.00;;;;;;;;5063659;28;8808;-74
2021/10/01 16:04:46;;;;;;;;;4.50;4.50;;;;;;;;5064430;28;8864;-74
2021/10/01 16:07:14;;;;;;;;;4.75;4.25;;;;;;;;5048123;28;8880;-75
2021/10/01 16:09:42;;;;;;;;;7.50;4.25;;;;;;;;5061396;28;8884;-74
2021/10/01 16:12:10;;;;;;;;;3.00;3.00;;;;;;;;5065209;28;8918;-76
2021/10/01 16:14:40;;;;;;;;;1.00;1.00;;;;;;;;5063941;28;8986;-74
2021/10/01 16:17:07;;;;;;;;;4.00;3.00;;;;;;;;5064241;28;8942;-77
2021/10/01 16:19:37;;;;;;;;;2.00;2.00;;;;;;;;5064058;28;8841;-77
2021/10/01 16:22:05;;;;;;;;;2.00;2.00;;;;;;;;5062268;28;8917;-74
2021/10/01 16:24:32;;;;;;;;;2.00;2.00;;;;;;;;5063528;28;8864;-78
2021/10/01 16:27:01;;;;;;;;;2.00;2.00;;;;;;;;5063639;28;8868;-74
2021/10/01 16:29:29;;;;;;;;;2.00;2.00;;;;;;;;5064684;28;8981;-74
2021/10/01 16:31:56;;;;;;;;;2.25;2.25;;;;;;;;5062841;28;8908;-76
2021/10/01 16:34:23;;;;;;;;;3.00;3.00;;;;;;;;5046481;28;8963;-75